createdAt,value
2017-06-14T00:00:28.714Z,0
2017-06-14T00:01:38.329Z,0
2017-06-14T00:02:47.655Z,0
2017-06-14T00:03:57.571Z,0
2017-06-14T00:05:07.521Z,0
2017-06-14T00:06:17.434Z,0
2017-06-14T00:07:27.387Z,0
2017-06-14T00:08:37.158Z,0
2017-06-14T00:09:47.765Z,0
2017-06-14T00:10:57.697Z,0
2017-06-14T00:12:07.943Z,0
2017-06-14T00:13:17.587Z,0
2017-06-14T00:14:27.524Z,0
2017-06-14T00:15:37.768Z,0
2017-06-14T00:16:47.748Z,0
2017-06-14T00:17:57.369Z,0
2017-06-14T00:19:07.307Z,0
2017-06-14T00:20:16.921Z,0
2017-06-14T00:21:26.547Z,0
2017-06-14T00:22:36.476Z,0
2017-06-14T00:23:46.096Z,0
2017-06-14T00:24:55.730Z,0
2017-06-14T00:26:05.496Z,0
2017-06-14T00:27:15.446Z,0
2017-06-14T00:28:25.385Z,0
2017-06-14T00:29:35.309Z,0
2017-06-14T00:30:44.961Z,0
2017-06-14T00:31:55.056Z,0
2017-06-14T00:33:04.963Z,0
2017-06-14T00:34:14.574Z,0
2017-06-14T00:35:24.486Z,0
2017-06-14T00:36:33.800Z,0
2017-06-14T00:37:43.198Z,0
2017-06-14T00:38:52.810Z,0
2017-06-14T00:40:02.731Z,0
2017-06-14T00:41:12.341Z,0
2017-06-14T00:42:22.269Z,0
2017-06-14T00:43:32.329Z,0
2017-06-14T00:44:42.548Z,0
2017-06-14T00:45:52.159Z,0
2017-06-14T00:47:02.098Z,0
2017-06-14T00:48:12.020Z,0
2017-06-14T00:49:22.259Z,0
2017-06-14T00:50:32.496Z,0
2017-06-14T00:51:42.411Z,0
2017-06-14T00:52:52.029Z,0
2017-06-14T00:54:01.322Z,0
2017-06-14T00:55:11.354Z,0
2017-06-14T00:56:21.296Z,0
2017-06-14T00:57:30.905Z,0
2017-06-14T00:58:40.839Z,0
2017-06-14T00:59:50.467Z,0
2017-06-14T01:01:00.540Z,0
2017-06-14T01:02:10.480Z,0
2017-06-14T01:03:20.708Z,0
2017-06-14T01:04:30.956Z,0
2017-06-14T01:05:40.880Z,0
2017-06-14T01:06:50.965Z,0
2017-06-14T01:08:00.560Z,0
2017-06-14T01:09:09.564Z,0
2017-06-14T01:10:19.215Z,0
2017-06-14T01:11:28.837Z,0
2017-06-14T01:12:38.765Z,0
2017-06-14T01:13:48.710Z,0
2017-06-14T01:14:58.314Z,0
2017-06-14T01:16:07.921Z,0
2017-06-14T01:17:17.855Z,0
2017-06-14T01:18:28.095Z,0
2017-06-14T01:19:38.053Z,0
2017-06-14T01:20:48.305Z,0
2017-06-14T01:21:58.249Z,0
2017-06-14T01:23:08.185Z,0
2017-06-14T01:24:18.782Z,0
2017-06-14T01:25:29.026Z,0
2017-06-14T01:26:38.951Z,0
2017-06-14T01:27:48.576Z,0
2017-06-14T01:28:58.827Z,0
2017-06-14T01:30:09.108Z,0
2017-06-14T01:31:18.701Z,0
2017-06-14T01:32:28.952Z,0
2017-06-14T01:33:38.272Z,0
2017-06-14T01:34:47.899Z,0
2017-06-14T01:35:58.318Z,0
2017-06-14T01:37:07.625Z,0
2017-06-14T01:38:17.258Z,0
2017-06-14T01:39:26.587Z,0
2017-06-14T01:40:36.820Z,0
2017-06-14T01:41:46.890Z,0
2017-06-14T01:42:56.215Z,0
2017-06-14T01:44:06.156Z,0
2017-06-14T01:45:16.057Z,0
2017-06-14T01:46:25.965Z,0
2017-06-14T01:47:36.201Z,0
2017-06-14T01:48:45.814Z,0
2017-06-14T01:49:56.041Z,0
2017-06-14T01:51:05.986Z,0
2017-06-14T01:52:16.226Z,0
2017-06-14T01:53:25.900Z,0
2017-06-14T01:54:36.131Z,0
2017-06-14T01:55:45.751Z,0
2017-06-14T01:56:55.696Z,0
2017-06-14T01:58:05.961Z,0
2017-06-14T01:59:15.737Z,0
2017-06-14T02:00:25.085Z,0
2017-06-14T02:01:35.387Z,0
2017-06-14T02:02:45.053Z,0
2017-06-14T02:03:55.002Z,0
2017-06-14T02:05:05.297Z,0
2017-06-14T02:06:15.530Z,0
2017-06-14T02:07:25.460Z,0
2017-06-14T02:08:35.395Z,0
2017-06-14T02:09:45.636Z,0
2017-06-14T02:10:56.038Z,0
2017-06-14T02:12:05.972Z,0
2017-06-14T02:13:16.221Z,0
2017-06-14T02:14:25.856Z,0
2017-06-14T02:15:35.791Z,0
2017-06-14T02:16:45.409Z,0
2017-06-14T02:17:55.656Z,0
2017-06-14T02:19:05.267Z,0
2017-06-14T02:20:14.880Z,0
2017-06-14T02:21:25.184Z,0
2017-06-14T02:22:35.090Z,0
2017-06-14T02:23:45.694Z,0
2017-06-14T02:24:55.010Z,0
2017-06-14T02:26:04.617Z,0
2017-06-14T02:27:14.167Z,0
2017-06-14T02:28:23.475Z,0
2017-06-14T02:29:33.408Z,0
2017-06-14T02:30:43.346Z,0
2017-06-14T02:31:53.272Z,0
2017-06-14T02:33:03.209Z,0
2017-06-14T02:34:13.144Z,0
2017-06-14T02:35:23.365Z,0
2017-06-14T02:36:33.269Z,0
2017-06-14T02:37:43.200Z,0
2017-06-14T02:38:53.269Z,0
2017-06-14T02:40:03.174Z,0
2017-06-14T02:41:13.393Z,0
2017-06-14T02:42:23.315Z,0
2017-06-14T02:43:32.936Z,0
2017-06-14T02:44:43.253Z,0
2017-06-14T02:45:52.860Z,0
2017-06-14T02:47:03.088Z,0
2017-06-14T02:48:13.003Z,0
2017-06-14T02:49:23.219Z,4
2017-06-14T02:50:33.495Z,4
2017-06-14T02:51:43.712Z,0
2017-06-14T02:52:53.311Z,0
2017-06-14T02:54:03.248Z,4
2017-06-14T02:55:13.191Z,4
2017-06-14T02:56:23.278Z,4
2017-06-14T02:57:33.522Z,4
2017-06-14T02:58:42.534Z,4
2017-06-14T02:59:52.163Z,8
2017-06-14T03:01:02.094Z,4
2017-06-14T03:02:12.170Z,8
2017-06-14T03:03:22.412Z,8
2017-06-14T03:04:32.028Z,8
2017-06-14T03:05:41.985Z,8
2017-06-14T03:06:51.607Z,12
2017-06-14T03:08:01.372Z,12
2017-06-14T03:09:11.602Z,16
2017-06-14T03:10:21.521Z,12
2017-06-14T03:11:31.765Z,20
2017-06-14T03:12:41.690Z,20
2017-06-14T03:13:51.459Z,20
2017-06-14T03:15:01.060Z,20
2017-06-14T03:16:10.359Z,24
2017-06-14T03:17:20.260Z,28
2017-06-14T03:18:30.184Z,28
2017-06-14T03:19:40.212Z,32
2017-06-14T03:20:49.836Z,32
2017-06-14T03:21:59.780Z,36
2017-06-14T03:23:09.708Z,40
2017-06-14T03:24:19.325Z,40
2017-06-14T03:25:29.402Z,44
2017-06-14T03:26:39.334Z,44
2017-06-14T03:27:48.954Z,52
2017-06-14T03:28:59.219Z,52
2017-06-14T03:30:09.159Z,56
2017-06-14T03:31:18.777Z,60
2017-06-14T03:32:28.723Z,60
2017-06-14T03:33:38.647Z,68
2017-06-14T03:34:48.292Z,72
2017-06-14T03:35:58.236Z,72
2017-06-14T03:37:08.335Z,72
2017-06-14T03:38:18.266Z,76
2017-06-14T03:39:28.205Z,80
2017-06-14T03:40:38.132Z,84
2017-06-14T03:41:48.065Z,88
2017-06-14T03:42:58.306Z,92
2017-06-14T03:44:08.560Z,100
2017-06-14T03:45:17.884Z,112
2017-06-14T03:46:28.131Z,124
2017-06-14T03:47:38.353Z,136
2017-06-14T03:48:48.266Z,144
2017-06-14T03:49:57.885Z,148
2017-06-14T03:51:07.819Z,152
2017-06-14T03:52:17.449Z,164
2017-06-14T03:53:27.670Z,168
2017-06-14T03:54:37.932Z,176
2017-06-14T03:55:47.576Z,180
2017-06-14T03:56:57.277Z,188
2017-06-14T03:58:07.206Z,196
2017-06-14T03:59:16.827Z,204
2017-06-14T04:00:25.850Z,212
2017-06-14T04:01:35.164Z,220
2017-06-14T04:02:45.402Z,224
2017-06-14T04:03:55.330Z,232
2017-06-14T04:05:04.343Z,236
2017-06-14T04:06:14.276Z,240
2017-06-14T04:07:24.508Z,252
2017-06-14T04:08:34.754Z,256
2017-06-14T04:09:45.023Z,268
2017-06-14T04:10:54.635Z,280
2017-06-14T04:12:04.300Z,292
2017-06-14T04:13:14.215Z,300
2017-06-14T04:14:23.841Z,316
2017-06-14T04:15:33.162Z,328
2017-06-14T04:16:43.096Z,344
2017-06-14T04:17:53.108Z,356
2017-06-14T04:19:03.338Z,372
2017-06-14T04:20:12.948Z,384
2017-06-14T04:21:22.268Z,400
2017-06-14T04:22:32.200Z,408
2017-06-14T04:23:42.592Z,420
2017-06-14T04:24:52.530Z,428
2017-06-14T04:26:02.146Z,440
2017-06-14T04:27:12.369Z,456
2017-06-14T04:28:22.328Z,476
2017-06-14T04:29:32.107Z,484
2017-06-14T04:30:42.332Z,500
2017-06-14T04:31:52.237Z,512
2017-06-14T04:33:02.170Z,516
2017-06-14T04:34:12.092Z,528
2017-06-14T04:35:21.863Z,536
2017-06-14T04:36:31.469Z,544
2017-06-14T04:37:41.081Z,556
2017-06-14T04:38:50.990Z,568
2017-06-14T04:40:01.230Z,580
2017-06-14T04:41:10.849Z,588
2017-06-14T04:42:20.788Z,596
2017-06-14T04:43:30.726Z,608
2017-06-14T04:44:40.972Z,616
2017-06-14T04:45:50.902Z,628
2017-06-14T04:47:00.526Z,640
2017-06-14T04:48:10.476Z,648
2017-06-14T04:49:20.414Z,656
2017-06-14T04:50:30.326Z,660
2017-06-14T04:51:40.559Z,668
2017-06-14T04:52:50.287Z,672
2017-06-14T04:53:59.900Z,676
2017-06-14T04:55:09.222Z,684
2017-06-14T04:56:19.486Z,692
2017-06-14T04:57:29.749Z,696
2017-06-14T04:58:39.129Z,696
2017-06-14T04:59:49.059Z,700
2017-06-14T05:00:58.993Z,700
2017-06-14T05:02:13.488Z,704
2017-06-14T05:03:23.418Z,708
2017-06-14T05:04:33.817Z,724
2017-06-14T05:05:43.766Z,748
2017-06-14T05:06:53.391Z,780
2017-06-14T05:08:03.329Z,812
2017-06-14T05:09:13.245Z,844
2017-06-14T05:10:23.023Z,888
2017-06-14T05:11:32.946Z,940
2017-06-14T05:12:42.893Z,988
2017-06-14T05:13:53.168Z,1048
2017-06-14T05:15:03.112Z,1112
2017-06-14T05:16:12.806Z,1188
2017-06-14T05:17:23.075Z,1256
2017-06-14T05:18:32.414Z,1356
2017-06-14T05:19:42.042Z,1640
2017-06-14T05:20:51.685Z,2028
2017-06-14T05:22:01.427Z,2152
2017-06-14T05:23:11.382Z,2172
2017-06-14T05:24:21.349Z,2184
2017-06-14T05:25:31.288Z,2192
2017-06-14T05:26:40.940Z,2216
2017-06-14T05:27:51.340Z,2256
2017-06-14T05:29:01.284Z,2284
2017-06-14T05:30:10.930Z,2304
2017-06-14T05:31:20.896Z,2324
2017-06-14T05:32:31.148Z,2344
2017-06-14T05:33:41.219Z,2364
2017-06-14T05:34:51.160Z,2372
2017-06-14T05:36:01.102Z,2384
2017-06-14T05:37:10.431Z,2404
2017-06-14T05:38:20.679Z,2424
2017-06-14T05:39:30.613Z,2444
2017-06-14T05:40:40.253Z,2468
2017-06-14T05:41:50.198Z,2476
2017-06-14T05:43:00.428Z,2480
2017-06-14T05:44:10.665Z,2504
2017-06-14T05:45:20.601Z,2508
2017-06-14T05:46:30.511Z,2520
2017-06-14T05:47:40.141Z,2536
2017-06-14T05:48:50.103Z,2540
2017-06-14T05:50:00.353Z,2548
2017-06-14T05:51:10.160Z,2568
2017-06-14T05:52:20.069Z,2588
2017-06-14T05:53:29.684Z,2608
2017-06-14T05:54:39.621Z,2628
2017-06-14T05:55:49.877Z,2636
2017-06-14T05:56:59.669Z,2656
2017-06-14T05:58:09.930Z,2672
2017-06-14T05:59:20.198Z,2680
2017-06-14T06:00:31.342Z,2700
2017-06-14T06:01:41.314Z,2724
2017-06-14T06:02:51.743Z,2744
2017-06-14T06:04:02.922Z,2768
2017-06-14T06:05:12.745Z,2792
2017-06-14T06:06:23.557Z,2836
2017-06-14T06:07:33.780Z,2888
2017-06-14T06:08:42.791Z,2928
2017-06-14T06:09:52.722Z,2912
2017-06-14T06:11:02.643Z,2996
2017-06-14T06:12:12.566Z,3032
2017-06-14T06:13:22.183Z,3020
2017-06-14T06:14:31.889Z,3028
2017-06-14T06:15:41.506Z,3044
2017-06-14T06:16:51.755Z,3068
2017-06-14T06:18:02.411Z,3084
2017-06-14T06:19:12.935Z,3092
2017-06-14T06:20:23.938Z,3092
2017-06-14T06:21:34.029Z,3092
2017-06-14T06:22:43.942Z,3080
2017-06-14T06:23:54.469Z,3104
2017-06-14T06:25:04.199Z,3136
2017-06-14T06:26:15.175Z,3152
2017-06-14T06:27:25.111Z,3160
2017-06-14T06:28:35.530Z,3208
2017-06-14T06:29:45.556Z,3224
2017-06-14T06:30:55.445Z,3252
2017-06-14T06:32:05.374Z,3332
2017-06-14T06:33:15.016Z,3360
2017-06-14T06:34:24.941Z,3440
2017-06-14T06:35:35.171Z,3564
2017-06-14T06:36:45.104Z,3696
2017-06-14T06:37:55.123Z,3972
2017-06-14T06:39:05.049Z,4408
2017-06-14T06:40:14.975Z,6464
2017-06-14T06:41:25.213Z,18848
2017-06-14T06:42:35.154Z,32544
2017-06-14T06:43:45.389Z,36064
2017-06-14T06:44:55.016Z,35680
2017-06-14T06:46:04.943Z,34528
2017-06-14T06:47:15.155Z,32640
2017-06-14T06:48:25.385Z,31584
2017-06-14T06:49:35.458Z,24224
2017-06-14T06:50:45.372Z,12148
2017-06-14T06:51:55.284Z,6320
2017-06-14T06:53:05.205Z,5172
2017-06-14T06:54:15.449Z,4296
2017-06-14T06:55:25.384Z,3128
2017-06-14T06:56:35.006Z,2716
2017-06-14T06:57:44.942Z,3584
2017-06-14T06:58:55.188Z,4520
2017-06-14T07:00:05.108Z,4712
2017-06-14T07:01:15.127Z,4740
2017-06-14T07:02:25.061Z,4812
2017-06-14T07:03:34.693Z,4900
2017-06-14T07:04:44.919Z,5040
2017-06-14T07:05:54.212Z,5096
2017-06-14T07:07:04.296Z,5212
2017-06-14T07:08:13.909Z,5320
2017-06-14T07:09:23.217Z,5400
2017-06-14T07:10:33.449Z,5472
2017-06-14T07:11:43.371Z,5580
2017-06-14T07:12:53.024Z,5624
2017-06-14T07:14:02.940Z,5688
2017-06-14T07:15:12.898Z,5740
2017-06-14T07:16:22.512Z,5860
2017-06-14T07:17:32.425Z,5972
2017-06-14T07:18:42.701Z,6072
2017-06-14T07:19:52.918Z,6144
2017-06-14T07:21:02.220Z,6212
2017-06-14T07:22:12.138Z,6324
2017-06-14T07:23:22.097Z,6424
2017-06-14T07:24:32.181Z,6552
2017-06-14T07:25:42.406Z,6724
2017-06-14T07:26:52.322Z,6964
2017-06-14T07:28:02.241Z,7548
2017-06-14T07:29:12.155Z,16620
2017-06-14T07:30:21.899Z,24928
2017-06-14T07:31:31.198Z,14132
2017-06-14T07:32:40.490Z,7604
2017-06-14T07:33:49.795Z,7608
2017-06-14T07:34:59.703Z,8216
2017-06-14T07:36:09.331Z,8852
2017-06-14T07:37:19.556Z,9844
2017-06-14T07:38:29.776Z,10652
2017-06-14T07:39:40.017Z,12296
2017-06-14T07:40:50.253Z,22048
2017-06-14T07:42:00.642Z,35744
2017-06-14T07:43:10.566Z,46304
2017-06-14T07:44:20.474Z,52768
2017-06-14T07:45:30.065Z,52000
2017-06-14T07:46:39.048Z,55712
2017-06-14T07:47:48.827Z,57056
2017-06-14T07:48:59.048Z,54368
2017-06-14T07:50:08.668Z,58752
2017-06-14T07:51:18.567Z,59264
2017-06-14T07:52:28.177Z,57856
2017-06-14T07:53:37.934Z,56032
2017-06-14T07:54:48.161Z,54432
2017-06-14T07:55:58.392Z,54112
2017-06-14T07:57:08.629Z,56992
2017-06-14T07:58:18.241Z,60736
2017-06-14T07:59:28.498Z,59520
2017-06-14T08:00:38.734Z,60736
2017-06-14T08:01:48.373Z,60192
2017-06-14T08:02:58.026Z,59968
2017-06-14T08:04:07.649Z,57024
2017-06-14T08:05:17.727Z,58400
2017-06-14T08:06:27.951Z,63616
2017-06-14T08:07:37.567Z,65472
2017-06-14T08:08:48.156Z,64576
2017-06-14T08:09:58.058Z,62144
2017-06-14T08:11:08.427Z,54208
2017-06-14T08:12:18.330Z,53088
2017-06-14T08:14:00.023Z,61440
2017-06-14T08:15:09.962Z,63392
2017-06-14T08:16:19.732Z,60576
2017-06-14T08:17:29.035Z,61344
2017-06-14T08:18:38.952Z,63904
2017-06-14T08:19:48.555Z,63872
2017-06-14T08:20:58.765Z,66176
2017-06-14T08:22:08.832Z,61024
2017-06-14T08:23:18.426Z,58112
2017-06-14T08:24:28.036Z,59904
2017-06-14T08:25:38.263Z,59168
2017-06-14T08:26:48.877Z,59136
2017-06-14T08:27:59.086Z,55904
2017-06-14T08:29:09.067Z,56608
2017-06-14T08:30:19.308Z,60544
2017-06-14T08:31:29.228Z,61088
2017-06-14T08:32:39.162Z,55104
2017-06-14T08:33:48.878Z,51232
2017-06-14T08:34:58.474Z,53792
2017-06-14T08:36:08.688Z,60096
2017-06-14T08:37:18.603Z,56992
2017-06-14T08:38:28.512Z,54624
2017-06-14T08:39:38.174Z,57920
2017-06-14T08:40:48.079Z,58304
2017-06-14T08:41:57.998Z,54784
2017-06-14T08:43:06.997Z,33824
2017-06-14T08:44:16.913Z,10108
2017-06-14T08:45:26.062Z,5708
2017-06-14T08:46:36.295Z,4828
2017-06-14T08:47:45.282Z,4396
2017-06-14T08:48:55.508Z,4040
2017-06-14T08:50:05.719Z,3760
2017-06-14T08:51:15.334Z,3624
2017-06-14T08:52:25.251Z,3456
2017-06-14T08:53:35.164Z,3176
2017-06-14T08:54:45.079Z,2652
2017-06-14T08:55:54.724Z,2348
2017-06-14T08:57:04.686Z,2320
2017-06-14T08:58:14.596Z,2324
2017-06-14T08:59:24.876Z,2304
2017-06-14T09:00:34.173Z,2328
2017-06-14T09:01:44.104Z,2428
2017-06-14T09:02:54.177Z,2388
2017-06-14T09:04:04.092Z,2400
2017-06-14T09:05:13.690Z,2160
2017-06-14T09:06:22.995Z,2012
2017-06-14T09:07:32.607Z,1904
2017-06-14T09:08:42.624Z,1640
2017-06-14T09:09:52.584Z,1572
2017-06-14T09:11:01.904Z,1520
2017-06-14T09:12:11.515Z,1496
2017-06-14T09:13:21.735Z,1484
2017-06-14T09:14:31.806Z,1488
2017-06-14T09:15:42.021Z,1492
2017-06-14T09:16:52.531Z,1472
2017-06-14T09:18:03.193Z,1448
2017-06-14T09:19:13.525Z,1440
2017-06-14T09:20:23.862Z,1432
2017-06-14T09:21:34.088Z,1388
2017-06-14T09:22:44.319Z,1364
2017-06-14T09:23:53.931Z,1384
2017-06-14T09:25:03.545Z,1400
2017-06-14T09:26:13.913Z,1424
2017-06-14T09:27:24.129Z,1388
2017-06-14T09:28:34.351Z,1352
2017-06-14T09:29:43.659Z,1364
2017-06-14T09:30:53.902Z,1388
2017-06-14T09:32:03.635Z,1416
2017-06-14T09:33:13.556Z,1440
2017-06-14T09:34:23.489Z,1488
2017-06-14T09:35:33.399Z,1556
2017-06-14T09:36:43.620Z,1588
2017-06-14T09:37:53.385Z,1520
2017-06-14T09:39:03.305Z,1488
2017-06-14T09:40:12.922Z,1484
2017-06-14T09:41:22.860Z,1464
2017-06-14T09:42:32.782Z,1432
2017-06-14T09:43:42.550Z,1360
2017-06-14T09:44:52.781Z,1308
2017-06-14T09:46:02.393Z,1292
2017-06-14T09:47:12.620Z,1272
2017-06-14T09:48:22.540Z,1236
2017-06-14T09:49:32.609Z,1212
2017-06-14T09:50:41.917Z,1212
2017-06-14T09:51:52.143Z,1216
2017-06-14T09:53:01.789Z,1232
2017-06-14T09:54:11.703Z,1280
2017-06-14T09:55:21.766Z,1380
2017-06-14T09:56:31.691Z,1352
2017-06-14T09:57:41.928Z,1404
2017-06-14T09:58:51.870Z,1560
2017-06-14T10:00:01.473Z,1428
2017-06-14T10:01:10.818Z,1252
2017-06-14T10:02:20.727Z,1200
2017-06-14T10:03:30.645Z,1224
2017-06-14T10:04:40.862Z,1296
2017-06-14T10:05:50.772Z,1360
2017-06-14T10:07:00.068Z,1328
2017-06-14T10:08:09.684Z,1224
2017-06-14T10:09:19.306Z,1172
2017-06-14T10:10:29.214Z,1112
2017-06-14T10:11:39.432Z,1080
2017-06-14T10:12:49.998Z,1080
2017-06-14T10:13:59.906Z,1072
2017-06-14T10:15:09.904Z,1048
2017-06-14T10:16:19.848Z,1040
2017-06-14T10:17:29.446Z,1028
2017-06-14T10:18:39.707Z,1032
2017-06-14T10:19:49.615Z,1032
2017-06-14T10:20:59.223Z,1080
2017-06-14T10:22:09.150Z,1132
2017-06-14T10:23:18.769Z,1156
2017-06-14T10:24:28.371Z,1148
2017-06-14T10:25:38.611Z,1128
2017-06-14T10:26:48.220Z,1160
2017-06-14T10:27:58.139Z,1168
2017-06-14T10:29:08.059Z,1276
2017-06-14T10:30:17.776Z,1368
2017-06-14T10:31:27.090Z,1348
2017-06-14T10:32:37.314Z,1308
2017-06-14T10:33:47.228Z,1252
2017-06-14T10:34:57.457Z,1260
2017-06-14T10:36:07.680Z,1156
2017-06-14T10:37:17.603Z,1128
2017-06-14T10:38:27.532Z,1136
2017-06-14T10:39:37.137Z,1168
2017-06-14T10:40:47.053Z,1208
2017-06-14T10:41:57.018Z,1200
2017-06-14T10:43:06.939Z,1108
2017-06-14T10:44:16.557Z,944
2017-06-14T10:45:26.494Z,932
2017-06-14T10:46:36.710Z,1120
2017-06-14T10:47:46.778Z,1144
2017-06-14T10:48:56.723Z,1048
2017-06-14T10:50:06.021Z,1012
2017-06-14T10:51:16.276Z,1008
2017-06-14T10:52:26.497Z,1016
2017-06-14T10:53:36.413Z,1032
2017-06-14T10:54:46.341Z,1028
2017-06-14T10:55:55.964Z,1056
2017-06-14T10:57:05.271Z,1088
2017-06-14T10:58:15.202Z,1032
2017-06-14T10:59:25.430Z,960
2017-06-14T11:00:35.667Z,940
2017-06-14T11:01:45.887Z,916
2017-06-14T11:02:55.496Z,912
2017-06-14T11:04:05.725Z,924
2017-06-14T11:05:15.974Z,928
2017-06-14T11:06:25.578Z,908
2017-06-14T11:07:35.502Z,884
2017-06-14T11:08:45.422Z,872
2017-06-14T11:09:55.037Z,864
2017-06-14T11:11:05.160Z,856
2017-06-14T11:12:15.094Z,848
2017-06-14T11:13:24.405Z,824
2017-06-14T11:14:34.626Z,808
2017-06-14T11:15:44.552Z,804
2017-06-14T11:16:54.507Z,820
2017-06-14T11:18:04.118Z,824
2017-06-14T11:19:14.046Z,828
2017-06-14T11:20:23.671Z,808
2017-06-14T11:21:33.305Z,788
2017-06-14T11:22:43.061Z,780
2017-06-14T11:23:52.974Z,776
2017-06-14T11:25:02.279Z,776
2017-06-14T11:26:11.889Z,776
2017-06-14T11:27:21.820Z,768
2017-06-14T11:28:31.835Z,760
2017-06-14T11:29:41.139Z,752
2017-06-14T11:30:50.755Z,736
2017-06-14T11:32:01.032Z,736
2017-06-14T11:33:10.956Z,732
2017-06-14T11:34:20.661Z,732
2017-06-14T11:35:30.264Z,712
2017-06-14T11:36:39.877Z,692
2017-06-14T11:37:49.817Z,688
2017-06-14T11:39:00.282Z,684
2017-06-14T11:40:10.962Z,688
2017-06-14T11:41:20.905Z,680
2017-06-14T11:42:31.497Z,676
2017-06-14T11:43:41.729Z,680
2017-06-14T11:44:51.960Z,676
2017-06-14T11:46:01.946Z,672
2017-06-14T11:47:12.192Z,672
2017-06-14T11:48:22.414Z,668
2017-06-14T11:49:32.060Z,664
2017-06-14T11:50:42.029Z,656
2017-06-14T11:51:51.419Z,656
2017-06-14T11:53:01.637Z,652
2017-06-14T11:54:11.860Z,652
2017-06-14T11:55:21.163Z,648
2017-06-14T11:56:31.386Z,644
2017-06-14T11:57:40.999Z,640
2017-06-14T11:58:50.929Z,636
2017-06-14T12:00:00.525Z,628
2017-06-14T12:01:10.142Z,624
2017-06-14T12:02:19.746Z,620
2017-06-14T12:03:30.004Z,616
2017-06-14T12:04:39.917Z,616
2017-06-14T12:05:49.545Z,612
2017-06-14T12:06:59.471Z,612
2017-06-14T12:08:08.794Z,620
2017-06-14T12:09:18.411Z,624
2017-06-14T12:10:27.732Z,620
2017-06-14T12:11:37.648Z,616
2017-06-14T12:12:47.878Z,616
2017-06-14T12:13:57.501Z,616
2017-06-14T12:15:07.269Z,620
2017-06-14T12:16:16.880Z,620
2017-06-14T12:17:27.123Z,616
2017-06-14T12:18:37.375Z,612
2017-06-14T12:19:47.009Z,612
2017-06-14T12:20:56.473Z,620
2017-06-14T12:22:06.409Z,616
2017-06-14T12:23:16.054Z,612
2017-06-14T12:24:26.280Z,608
2017-06-14T12:25:36.517Z,608
2017-06-14T12:26:46.878Z,600
2017-06-14T12:27:57.096Z,596
2017-06-14T12:29:06.417Z,592
2017-06-14T12:30:16.044Z,592
2017-06-14T12:31:26.269Z,592
2017-06-14T12:32:36.018Z,592
2017-06-14T12:33:45.628Z,592
2017-06-14T12:34:55.546Z,592
2017-06-14T12:36:05.180Z,592
2017-06-14T12:37:15.405Z,588
2017-06-14T12:38:25.485Z,588
2017-06-14T12:39:34.774Z,588
2017-06-14T12:40:44.383Z,584
2017-06-14T12:41:53.978Z,572
2017-06-14T12:43:04.198Z,572
2017-06-14T12:44:13.794Z,576
2017-06-14T12:45:23.395Z,576
2017-06-14T12:46:33.302Z,572
2017-06-14T12:47:43.228Z,564
2017-06-14T12:48:53.138Z,560
2017-06-14T12:50:03.387Z,556
2017-06-14T12:51:13.299Z,556
2017-06-14T12:52:23.223Z,552
2017-06-14T12:53:32.843Z,548
2017-06-14T12:54:42.450Z,544
2017-06-14T12:55:52.202Z,544
2017-06-14T12:57:02.111Z,540
2017-06-14T12:58:11.715Z,544
2017-06-14T12:59:21.338Z,536
2017-06-14T13:00:31.245Z,532
2017-06-14T13:01:40.383Z,536
2017-06-14T13:02:49.983Z,536
2017-06-14T13:03:59.910Z,540
2017-06-14T13:05:09.825Z,536
2017-06-14T13:06:19.750Z,536
2017-06-14T13:07:29.663Z,536
2017-06-14T13:08:39.269Z,532
2017-06-14T13:09:48.874Z,536
2017-06-14T13:10:59.103Z,528
2017-06-14T13:12:09.384Z,520
2017-06-14T13:13:19.032Z,516
2017-06-14T13:14:28.389Z,516
2017-06-14T13:15:38.300Z,516
2017-06-14T13:16:48.233Z,516
2017-06-14T13:17:57.839Z,516
2017-06-14T13:19:08.135Z,512
2017-06-14T13:20:18.049Z,512
2017-06-14T13:21:27.648Z,508
2017-06-14T13:22:37.565Z,504
2017-06-14T13:23:47.791Z,508
2017-06-14T13:24:57.704Z,504
2017-06-14T13:26:07.315Z,504
2017-06-14T13:27:16.915Z,508
2017-06-14T13:28:26.825Z,508
2017-06-14T13:29:36.735Z,512
2017-06-14T13:30:47.164Z,516
2017-06-14T13:31:57.382Z,516
2017-06-14T13:33:07.306Z,516
2017-06-14T13:34:17.535Z,512
2017-06-14T13:35:26.842Z,512
2017-06-14T13:36:36.898Z,508
2017-06-14T13:37:46.810Z,504
2017-06-14T13:38:56.111Z,504
2017-06-14T13:40:05.715Z,496
2017-06-14T13:41:15.938Z,500
2017-06-14T13:42:25.906Z,492
2017-06-14T13:43:35.825Z,496
2017-06-14T13:44:45.427Z,492
2017-06-14T13:45:55.341Z,492
2017-06-14T13:47:05.265Z,488
2017-06-14T13:48:15.651Z,488
2017-06-14T13:49:25.584Z,488
2017-06-14T13:50:35.194Z,492
2017-06-14T13:51:45.118Z,492
2017-06-14T13:52:55.332Z,492
2017-06-14T13:54:04.460Z,488
2017-06-14T13:55:14.676Z,492
2017-06-14T13:56:24.579Z,488
2017-06-14T13:57:34.189Z,488
2017-06-14T13:58:44.413Z,488
2017-06-14T13:59:54.562Z,480
2017-06-14T14:01:04.159Z,484
2017-06-14T14:02:13.757Z,484
2017-06-14T14:03:23.972Z,484
2017-06-14T14:04:33.883Z,484
2017-06-14T14:05:43.335Z,480
2017-06-14T14:06:52.971Z,484
2017-06-14T14:08:02.875Z,484
2017-06-14T14:09:12.805Z,480
2017-06-14T14:10:22.730Z,476
2017-06-14T14:11:32.738Z,476
2017-06-14T14:12:42.344Z,476
2017-06-14T14:13:52.273Z,480
2017-06-14T14:15:02.186Z,480
2017-06-14T14:16:11.499Z,480
2017-06-14T14:17:21.569Z,480
2017-06-14T14:18:31.201Z,480
2017-06-14T14:19:41.418Z,476
2017-06-14T14:20:51.325Z,472
2017-06-14T14:22:01.544Z,472
2017-06-14T14:23:11.862Z,468
2017-06-14T14:24:21.791Z,476
2017-06-14T14:25:31.713Z,472
2017-06-14T14:26:41.934Z,472
2017-06-14T14:27:52.175Z,476
2017-06-14T14:29:02.242Z,480
2017-06-14T14:30:11.847Z,476
2017-06-14T14:31:21.760Z,480
2017-06-14T14:32:31.374Z,480
2017-06-14T14:33:41.608Z,476
2017-06-14T14:34:51.081Z,480
2017-06-14T14:36:01.316Z,500
2017-06-14T14:37:11.241Z,504
2017-06-14T14:38:21.461Z,512
2017-06-14T14:39:31.398Z,536
2017-06-14T14:40:41.077Z,572
2017-06-14T14:41:51.351Z,596
2017-06-14T14:43:01.560Z,600
2017-06-14T14:44:11.810Z,588
2017-06-14T14:45:21.719Z,592
2017-06-14T14:46:31.958Z,580
2017-06-14T14:47:41.882Z,564
2017-06-14T14:48:51.798Z,552
2017-06-14T14:50:01.395Z,540
2017-06-14T14:51:11.307Z,524
2017-06-14T14:52:21.063Z,504
2017-06-14T14:53:30.701Z,488
2017-06-14T14:54:40.322Z,476
2017-06-14T14:55:49.924Z,472
2017-06-14T14:57:00.142Z,464
2017-06-14T14:58:10.367Z,464
2017-06-14T14:59:20.580Z,464
2017-06-14T15:00:30.490Z,460
2017-06-14T15:01:40.703Z,456
2017-06-14T15:02:50.315Z,456
2017-06-14T15:04:00.575Z,452
2017-06-14T15:05:10.174Z,452
2017-06-14T15:06:20.432Z,448
2017-06-14T15:07:30.667Z,448
2017-06-14T15:08:41.249Z,448
2017-06-14T15:09:51.634Z,444
2017-06-14T15:11:01.858Z,444
2017-06-14T15:12:11.482Z,436
2017-06-14T15:13:21.723Z,436
2017-06-14T15:14:31.970Z,428
2017-06-14T15:15:41.592Z,428
2017-06-14T15:16:51.517Z,424
2017-06-14T15:18:01.142Z,420
2017-06-14T15:19:11.045Z,424
2017-06-14T15:20:20.955Z,424
2017-06-14T15:21:31.314Z,424
2017-06-14T15:22:41.217Z,424
2017-06-14T15:23:51.508Z,424
2017-06-14T15:25:01.730Z,420
2017-06-14T15:26:12.341Z,416
2017-06-14T15:27:22.284Z,416
2017-06-14T15:28:32.202Z,416
2017-06-14T15:29:41.805Z,412
2017-06-14T15:30:51.411Z,408
2017-06-14T15:32:01.028Z,408
2017-06-14T15:33:10.651Z,408
2017-06-14T15:34:20.274Z,408
2017-06-14T15:35:30.508Z,408
2017-06-14T15:36:40.182Z,408
2017-06-14T15:37:50.421Z,408
2017-06-14T15:39:00.351Z,408
2017-06-14T15:40:10.267Z,404
2017-06-14T15:41:20.510Z,404
2017-06-14T15:42:30.112Z,404
2017-06-14T15:43:40.381Z,404
2017-06-14T15:44:50.013Z,404
2017-06-14T15:46:00.242Z,404
2017-06-14T15:47:10.166Z,408
2017-06-14T15:48:20.125Z,408
2017-06-14T15:49:30.358Z,408
2017-06-14T15:50:39.977Z,404
2017-06-14T15:51:50.215Z,404
2017-06-14T15:53:00.441Z,400
2017-06-14T15:54:10.195Z,400
2017-06-14T15:55:19.859Z,400
2017-06-14T15:56:30.938Z,396
2017-06-14T15:57:40.914Z,396
2017-06-14T15:58:49.934Z,400
2017-06-14T16:00:00.465Z,400
2017-06-14T16:01:10.364Z,400
2017-06-14T16:02:19.966Z,400